You are listening to:
RJAA Departure #1 - Tokyo, Japan

RJAA 231030Z 06006KT 010V090 9999 FEW015 BKN060 17/13 Q1017 BECMG 05005KT

If stream doesn't start automatically press the play button
If stream stops then reload player then press play